sensor_id;sensor_type;location;lat;lon;timestamp;P1;durP1;ratioP1;P2;durP2;ratioP2
55300;SDS011;58302;51.446;-2.000;2022-07-30T00:00:56;5.63;;;3.95;;
55300;SDS011;58302;51.446;-2.000;2022-07-30T00:03:22;3.97;;;3.58;;
55300;SDS011;58302;51.446;-2.000;2022-07-30T00:05:48;3.35;;;3.05;;
55300;SDS011;58302;51.446;-2.000;2022-07-30T00:08:14;6.15;;;4.00;;
55300;SDS011;58302;51.446;-2.000;2022-07-30T00:10:40;6.03;;;3.55;;
55300;SDS011;58302;51.446;-2.000;2022-07-30T00:13:06;5.18;;;3.45;;
55300;SDS011;58302;51.446;-2.000;2022-07-30T00:15:32;9.05;;;4.43;;
55300;SDS011;58302;51.446;-2.000;2022-07-30T00:17:58;7.18;;;4.18;;
55300;SDS011;58302;51.446;-2.000;2022-07-30T00:20:25;4.22;;;3.25;;
55300;SDS011;58302;51.446;-2.000;2022-07-30T00:22:51;5.30;;;3.75;;
55300;SDS011;58302;51.446;-2.000;2022-07-30T00:25:17;8.27;;;4.20;;
55300;SDS011;58302;51.446;-2.000;2022-07-30T00:27:43;7.07;;;3.97;;
55300;SDS011;58302;51.446;-2.000;2022-07-30T00:30:10;4.93;;;3.40;;
55300;SDS011;58302;51.446;-2.000;2022-07-30T00:32:37;5.25;;;3.40;;
55300;SDS011;58302;51.446;-2.000;2022-07-30T00:35:03;6.40;;;3.75;;
55300;SDS011;58302;51.446;-2.000;2022-07-30T00:37:29;6.47;;;4.00;;
55300;SDS011;58302;51.446;-2.000;2022-07-30T00:39:55;6.03;;;3.95;;
55300;SDS011;58302;51.446;-2.000;2022-07-30T00:42:21;6.28;;;4.30;;
55300;SDS011;58302;51.446;-2.000;2022-07-30T00:44:51;4.85;;;3.17;;
55300;SDS011;58302;51.446;-2.000;2022-07-30T00:47:17;6.72;;;3.83;;
55300;SDS011;58302;51.446;-2.000;2022-07-30T00:49:44;6.57;;;4.43;;
55300;SDS011;58302;51.446;-2.000;2022-07-30T00:52:10;8.32;;;4.22;;
55300;SDS011;58302;51.446;-2.000;2022-07-30T00:54:36;7.85;;;4.38;;
55300;SDS011;58302;51.446;-2.000;2022-07-30T00:57:02;7.57;;;5.03;;
55300;SDS011;58302;51.446;-2.000;2022-07-30T00:59:28;5.85;;;4.18;;
55300;SDS011;58302;51.446;-2.000;2022-07-30T01:01:56;5.78;;;4.00;;
55300;SDS011;58302;51.446;-2.000;2022-07-30T01:04:23;4.70;;;3.78;;
55300;SDS011;58302;51.446;-2.000;2022-07-30T01:06:49;5.65;;;4.00;;
55300;SDS011;58302;51.446;-2.000;2022-07-30T01:09:15;5.50;;;3.80;;
55300;SDS011;58302;51.446;-2.000;2022-07-30T01:11:41;6.07;;;3.67;;
55300;SDS011;58302;51.446;-2.000;2022-07-30T01:14:08;5.35;;;3.92;;
55300;SDS011;58302;51.446;-2.000;2022-07-30T01:16:34;5.80;;;3.88;;
55300;SDS011;58302;51.446;-2.000;2022-07-30T01:19:03;6.07;;;3.90;;
55300;SDS011;58302;51.446;-2.000;2022-07-30T01:22:01;8.82;;;4.43;;
55300;SDS011;58302;51.446;-2.000;2022-07-30T01:24:35;5.53;;;4.30;;
55300;SDS011;58302;51.446;-2.000;2022-07-30T01:27:05;5.32;;;4.22;;
55300;SDS011;58302;51.446;-2.000;2022-07-30T01:29:33;4.13;;;3.72;;
55300;SDS011;58302;51.446;-2.000;2022-07-30T01:32:00;6.28;;;4.18;;
55300;SDS011;58302;51.446;-2.000;2022-07-30T01:34:30;5.63;;;3.60;;
55300;SDS011;58302;51.446;-2.000;2022-07-30T01:36:59;5.50;;;3.80;;
55300;SDS011;58302;51.446;-2.000;2022-07-30T01:39:27;5.47;;;4.32;;
55300;SDS011;58302;51.446;-2.000;2022-07-30T01:41:54;6.25;;;4.18;;
55300;SDS011;58302;51.446;-2.000;2022-07-30T01:44:22;4.15;;;3.75;;
55300;SDS011;58302;51.446;-2.000;2022-07-30T01:46:52;6.82;;;4.20;;
55300;SDS011;58302;51.446;-2.000;2022-07-30T01:49:20;7.40;;;3.70;;
55300;SDS011;58302;51.446;-2.000;2022-07-30T01:51:47;7.32;;;3.75;;
55300;SDS011;58302;51.446;-2.000;2022-07-30T01:54:15;4.60;;;3.90;;
55300;SDS011;58302;51.446;-2.000;2022-07-30T01:56:43;4.85;;;3.47;;
55300;SDS011;58302;51.446;-2.000;2022-07-30T01:59:12;6.40;;;3.78;;
55300;SDS011;58302;51.446;-2.000;2022-07-30T02:01:43;5.50;;;4.10;;
55300;SDS011;58302;51.446;-2.000;2022-07-30T02:04:09;12.18;;;5.72;;
55300;SDS011;58302;51.446;-2.000;2022-07-30T02:06:40;7.32;;;4.15;;
55300;SDS011;58302;51.446;-2.000;2022-07-30T02:09:10;5.95;;;4.22;;
55300;SDS011;58302;51.446;-2.000;2022-07-30T02:11:44;6.55;;;4.85;;
55300;SDS011;58302;51.446;-2.000;2022-07-30T02:14:53;8.85;;;4.47;;
55300;SDS011;58302;51.446;-2.000;2022-07-30T02:17:25;6.70;;;4.65;;
55300;SDS011;58302;51.446;-2.000;2022-07-30T02:19:54;8.10;;;5.17;;
55300;SDS011;58302;51.446;-2.000;2022-07-30T02:22:22;9.50;;;4.90;;
55300;SDS011;58302;51.446;-2.000;2022-07-30T02:24:51;6.15;;;5.38;;
55300;SDS011;58302;51.446;-2.000;2022-07-30T02:27:27;6.32;;;4.07;;
55300;SDS011;58302;51.446;-2.000;2022-07-30T02:29:57;5.55;;;4.47;;
55300;SDS011;58302;51.446;-2.000;2022-07-30T02:32:26;4.90;;;3.92;;
55300;SDS011;58302;51.446;-2.000;2022-07-30T02:34:59;6.40;;;4.55;;
55300;SDS011;58302;51.446;-2.000;2022-07-30T02:37:29;6.57;;;4.95;;
55300;SDS011;58302;51.446;-2.000;2022-07-30T02:39:57;6.22;;;4.85;;
55300;SDS011;58302;51.446;-2.000;2022-07-30T02:42:24;5.78;;;4.80;;
55300;SDS011;58302;51.446;-2.000;2022-07-30T02:44:51;6.10;;;4.50;;
55300;SDS011;58302;51.446;-2.000;2022-07-30T02:47:20;7.40;;;5.40;;
55300;SDS011;58302;51.446;-2.000;2022-07-30T02:49:48;6.47;;;4.75;;
55300;SDS011;58302;51.446;-2.000;2022-07-30T02:52:16;6.47;;;5.47;;
55300;SDS011;58302;51.446;-2.000;2022-07-30T02:54:42;14.45;;;6.03;;
55300;SDS011;58302;51.446;-2.000;2022-07-30T02:57:10;7.53;;;4.88;;
55300;SDS011;58302;51.446;-2.000;2022-07-30T02:59:40;6.88;;;5.70;;
55300;SDS011;58302;51.446;-2.000;2022-07-30T03:02:07;9.43;;;5.32;;
55300;SDS011;58302;51.446;-2.000;2022-07-30T03:04:36;5.65;;;5.05;;
55300;SDS011;58302;51.446;-2.000;2022-07-30T03:07:03;6.72;;;6.07;;
55300;SDS011;58302;51.446;-2.000;2022-07-30T03:09:31;7.25;;;5.00;;
55300;SDS011;58302;51.446;-2.000;2022-07-30T03:11:58;9.07;;;5.80;;
55300;SDS011;58302;51.446;-2.000;2022-07-30T03:14:26;7.07;;;6.03;;
55300;SDS011;58302;51.446;-2.000;2022-07-30T03:16:54;9.32;;;5.70;;
55300;SDS011;58302;51.446;-2.000;2022-07-30T03:19:22;6.75;;;5.57;;
55300;SDS011;58302;51.446;-2.000;2022-07-30T03:21:50;9.32;;;5.80;;
55300;SDS011;58302;51.446;-2.000;2022-07-30T03:24:21;9.25;;;5.80;;
55300;SDS011;58302;51.446;-2.000;2022-07-30T03:26:49;6.63;;;5.50;;
55300;SDS011;58302;51.446;-2.000;2022-07-30T03:29:18;5.47;;;4.88;;
55300;SDS011;58302;51.446;-2.000;2022-07-30T03:31:47;7.53;;;5.80;;
55300;SDS011;58302;51.446;-2.000;2022-07-30T03:34:15;8.18;;;5.80;;
55300;SDS011;58302;51.446;-2.000;2022-07-30T03:36:42;7.63;;;5.40;;
55300;SDS011;58302;51.446;-2.000;2022-07-30T03:39:08;7.07;;;5.47;;
55300;SDS011;58302;51.446;-2.000;2022-07-30T03:41:35;9.98;;;6.13;;
55300;SDS011;58302;51.446;-2.000;2022-07-30T03:44:02;7.90;;;6.82;;
55300;SDS011;58302;51.446;-2.000;2022-07-30T03:46:29;8.43;;;5.90;;
55300;SDS011;58302;51.446;-2.000;2022-07-30T03:48:56;7.68;;;5.85;;
55300;SDS011;58302;51.446;-2.000;2022-07-30T03:51:23;8.18;;;6.50;;
55300;SDS011;58302;51.446;-2.000;2022-07-30T03:53:49;7.45;;;5.80;;
55300;SDS011;58302;51.446;-2.000;2022-07-30T03:56:16;7.93;;;6.00;;
55300;SDS011;58302;51.446;-2.000;2022-07-30T03:58:42;8.73;;;6.80;;
55300;SDS011;58302;51.446;-2.000;2022-07-30T04:01:08;7.78;;;6.55;;
55300;SDS011;58302;51.446;-2.000;2022-07-30T04:03:35;7.32;;;5.90;;
55300;SDS011;58302;51.446;-2.000;2022-07-30T04:06:00;10.23;;;6.85;;
55300;SDS011;58302;51.446;-2.000;2022-07-30T04:08:27;12.32;;;6.90;;
55300;SDS011;58302;51.446;-2.000;2022-07-30T04:10:53;10.10;;;6.47;;
55300;SDS011;58302;51.446;-2.000;2022-07-30T04:13:19;10.60;;;7.93;;
55300;SDS011;58302;51.446;-2.000;2022-07-30T04:15:58;9.55;;;7.47;;
55300;SDS011;58302;51.446;-2.000;2022-07-30T04:18:31;9.15;;;7.68;;
55300;SDS011;58302;51.446;-2.000;2022-07-30T04:21:04;8.98;;;7.13;;
55300;SDS011;58302;51.446;-2.000;2022-07-30T04:23:33;14.20;;;9.45;;
55300;SDS011;58302;51.446;-2.000;2022-07-30T04:25:59;10.23;;;7.25;;
55300;SDS011;58302;51.446;-2.000;2022-07-30T04:28:26;14.65;;;7.93;;
55300;SDS011;58302;51.446;-2.000;2022-07-30T04:30:53;10.43;;;7.82;;
55300;SDS011;58302;51.446;-2.000;2022-07-30T04:33:19;11.10;;;7.82;;
55300;SDS011;58302;51.446;-2.000;2022-07-30T04:35:45;9.70;;;7.07;;
55300;SDS011;58302;51.446;-2.000;2022-07-30T04:38:11;11.27;;;8.00;;
55300;SDS011;58302;51.446;-2.000;2022-07-30T04:40:39;10.98;;;7.60;;
55300;SDS011;58302;51.446;-2.000;2022-07-30T04:43:06;8.57;;;7.18;;
55300;SDS011;58302;51.446;-2.000;2022-07-30T04:45:32;7.63;;;6.60;;
55300;SDS011;58302;51.446;-2.000;2022-07-30T04:47:59;8.60;;;7.72;;
55300;SDS011;58302;51.446;-2.000;2022-07-30T04:50:26;11.63;;;7.13;;
55300;SDS011;58302;51.446;-2.000;2022-07-30T04:52:54;9.50;;;7.95;;
55300;SDS011;58302;51.446;-2.000;2022-07-30T04:55:21;9.60;;;6.75;;
55300;SDS011;58302;51.446;-2.000;2022-07-30T04:57:48;9.80;;;6.97;;
55300;SDS011;58302;51.446;-2.000;2022-07-30T05:00:16;9.00;;;6.63;;
55300;SDS011;58302;51.446;-2.000;2022-07-30T05:02:42;10.80;;;8.07;;
55300;SDS011;58302;51.446;-2.000;2022-07-30T05:05:13;9.68;;;7.18;;
55300;SDS011;58302;51.446;-2.000;2022-07-30T05:07:40;13.23;;;7.28;;
55300;SDS011;58302;51.446;-2.000;2022-07-30T05:10:09;9.00;;;7.15;;
55300;SDS011;58302;51.446;-2.000;2022-07-30T05:12:36;9.05;;;6.57;;
55300;SDS011;58302;51.446;-2.000;2022-07-30T05:15:04;9.15;;;6.80;;
55300;SDS011;58302;51.446;-2.000;2022-07-30T05:17:32;10.02;;;6.65;;
55300;SDS011;58302;51.446;-2.000;2022-07-30T05:19:59;10.10;;;6.65;;
55300;SDS011;58302;51.446;-2.000;2022-07-30T05:22:25;7.32;;;6.47;;
55300;SDS011;58302;51.446;-2.000;2022-07-30T05:24:55;9.02;;;6.40;;
55300;SDS011;58302;51.446;-2.000;2022-07-30T05:27:24;11.00;;;6.88;;
55300;SDS011;58302;51.446;-2.000;2022-07-30T05:29:50;12.02;;;7.25;;
55300;SDS011;58302;51.446;-2.000;2022-07-30T05:32:16;7.70;;;5.82;;
55300;SDS011;58302;51.446;-2.000;2022-07-30T05:34:42;10.43;;;6.28;;
55300;SDS011;58302;51.446;-2.000;2022-07-30T05:37:08;7.68;;;6.68;;
55300;SDS011;58302;51.446;-2.000;2022-07-30T05:39:34;7.40;;;5.45;;
55300;SDS011;58302;51.446;-2.000;2022-07-30T05:42:00;10.48;;;6.03;;
55300;SDS011;58302;51.446;-2.000;2022-07-30T05:44:26;6.55;;;5.80;;
55300;SDS011;58302;51.446;-2.000;2022-07-30T05:46:52;8.35;;;5.70;;
55300;SDS011;58302;51.446;-2.000;2022-07-30T05:49:18;8.63;;;6.72;;
55300;SDS011;58302;51.446;-2.000;2022-07-30T05:51:44;8.07;;;6.40;;
55300;SDS011;58302;51.446;-2.000;2022-07-30T05:54:10;7.55;;;5.22;;
55300;SDS011;58302;51.446;-2.000;2022-07-30T05:56:37;5.68;;;4.97;;
55300;SDS011;58302;51.446;-2.000;2022-07-30T05:59:03;8.20;;;5.75;;
55300;SDS011;58302;51.446;-2.000;2022-07-30T06:01:29;7.10;;;5.63;;
55300;SDS011;58302;51.446;-2.000;2022-07-30T06:03:55;9.70;;;6.55;;
55300;SDS011;58302;51.446;-2.000;2022-07-30T06:06:21;7.45;;;5.43;;
55300;SDS011;58302;51.446;-2.000;2022-07-30T06:08:47;6.50;;;5.15;;
55300;SDS011;58302;51.446;-2.000;2022-07-30T06:11:14;6.55;;;4.95;;
55300;SDS011;58302;51.446;-2.000;2022-07-30T06:13:40;9.10;;;6.20;;
55300;SDS011;58302;51.446;-2.000;2022-07-30T06:16:06;7.45;;;4.85;;
55300;SDS011;58302;51.446;-2.000;2022-07-30T06:18:32;5.68;;;4.57;;
55300;SDS011;58302;51.446;-2.000;2022-07-30T06:20:58;8.38;;;4.95;;
55300;SDS011;58302;51.446;-2.000;2022-07-30T06:23:24;10.15;;;4.72;;
55300;SDS011;58302;51.446;-2.000;2022-07-30T06:25:50;6.57;;;4.80;;
55300;SDS011;58302;51.446;-2.000;2022-07-30T06:28:17;11.13;;;5.80;;
55300;SDS011;58302;51.446;-2.000;2022-07-30T06:30:44;7.75;;;5.18;;
55300;SDS011;58302;51.446;-2.000;2022-07-30T06:33:10;4.93;;;4.28;;
55300;SDS011;58302;51.446;-2.000;2022-07-30T06:35:36;8.23;;;4.82;;
55300;SDS011;58302;51.446;-2.000;2022-07-30T06:38:02;7.15;;;4.50;;
55300;SDS011;58302;51.446;-2.000;2022-07-30T06:40:28;5.78;;;4.65;;
55300;SDS011;58302;51.446;-2.000;2022-07-30T06:42:56;6.50;;;4.82;;
55300;SDS011;58302;51.446;-2.000;2022-07-30T06:45:21;6.43;;;4.50;;
55300;SDS011;58302;51.446;-2.000;2022-07-30T06:47:47;7.20;;;4.97;;
55300;SDS011;58302;51.446;-2.000;2022-07-30T06:50:13;7.45;;;4.90;;
55300;SDS011;58302;51.446;-2.000;2022-07-30T06:52:40;8.27;;;4.95;;
55300;SDS011;58302;51.446;-2.000;2022-07-30T06:55:06;9.27;;;4.38;;
55300;SDS011;58302;51.446;-2.000;2022-07-30T06:57:32;6.22;;;4.25;;
55300;SDS011;58302;51.446;-2.000;2022-07-30T06:59:58;6.35;;;4.30;;
55300;SDS011;58302;51.446;-2.000;2022-07-30T07:02:24;5.47;;;4.18;;
55300;SDS011;58302;51.446;-2.000;2022-07-30T07:04:50;5.45;;;3.33;;
55300;SDS011;58302;51.446;-2.000;2022-07-30T07:07:16;8.90;;;3.53;;
55300;SDS011;58302;51.446;-2.000;2022-07-30T07:09:42;5.35;;;3.15;;
55300;SDS011;58302;51.446;-2.000;2022-07-30T07:12:08;6.18;;;3.33;;
55300;SDS011;58302;51.446;-2.000;2022-07-30T07:14:34;5.57;;;3.33;;
55300;SDS011;58302;51.446;-2.000;2022-07-30T07:17:00;3.53;;;3.00;;
55300;SDS011;58302;51.446;-2.000;2022-07-30T07:19:26;7.40;;;3.20;;
55300;SDS011;58302;51.446;-2.000;2022-07-30T07:21:52;4.78;;;2.83;;
55300;SDS011;58302;51.446;-2.000;2022-07-30T07:24:18;4.78;;;2.83;;
55300;SDS011;58302;51.446;-2.000;2022-07-30T07:26:44;3.97;;;3.45;;
55300;SDS011;58302;51.446;-2.000;2022-07-30T07:29:10;3.85;;;2.55;;
55300;SDS011;58302;51.446;-2.000;2022-07-30T07:31:36;4.40;;;3.42;;
55300;SDS011;58302;51.446;-2.000;2022-07-30T07:34:03;3.30;;;2.90;;
55300;SDS011;58302;51.446;-2.000;2022-07-30T07:36:29;4.03;;;2.88;;
55300;SDS011;58302;51.446;-2.000;2022-07-30T07:38:55;3.45;;;2.90;;
55300;SDS011;58302;51.446;-2.000;2022-07-30T07:41:21;5.60;;;4.13;;
55300;SDS011;58302;51.446;-2.000;2022-07-30T07:43:47;4.03;;;2.70;;
55300;SDS011;58302;51.446;-2.000;2022-07-30T07:46:13;4.93;;;2.80;;
55300;SDS011;58302;51.446;-2.000;2022-07-30T07:48:41;4.35;;;2.90;;
55300;SDS011;58302;51.446;-2.000;2022-07-30T07:51:08;5.00;;;3.13;;
55300;SDS011;58302;51.446;-2.000;2022-07-30T07:53:34;3.55;;;2.97;;
55300;SDS011;58302;51.446;-2.000;2022-07-30T07:56:00;5.18;;;3.30;;
55300;SDS011;58302;51.446;-2.000;2022-07-30T07:58:26;3.80;;;2.90;;
55300;SDS011;58302;51.446;-2.000;2022-07-30T08:00:52;4.22;;;3.70;;
55300;SDS011;58302;51.446;-2.000;2022-07-30T08:03:19;7.55;;;3.88;;
55300;SDS011;58302;51.446;-2.000;2022-07-30T08:05:45;4.13;;;3.40;;
55300;SDS011;58302;51.446;-2.000;2022-07-30T08:08:11;4.60;;;3.47;;
55300;SDS011;58302;51.446;-2.000;2022-07-30T08:10:37;6.00;;;3.63;;
55300;SDS011;58302;51.446;-2.000;2022-07-30T08:13:03;7.90;;;3.13;;
55300;SDS011;58302;51.446;-2.000;2022-07-30T08:15:30;6.47;;;3.13;;
55300;SDS011;58302;51.446;-2.000;2022-07-30T08:17:56;7.43;;;4.30;;
55300;SDS011;58302;51.446;-2.000;2022-07-30T08:20:22;6.70;;;3.78;;
55300;SDS011;58302;51.446;-2.000;2022-07-30T08:22:49;3.63;;;3.28;;
55300;SDS011;58302;51.446;-2.000;2022-07-30T08:25:15;9.70;;;3.13;;
55300;SDS011;58302;51.446;-2.000;2022-07-30T08:27:44;4.80;;;3.25;;
55300;SDS011;58302;51.446;-2.000;2022-07-30T08:30:10;4.68;;;4.07;;
55300;SDS011;58302;51.446;-2.000;2022-07-30T08:32:37;3.70;;;2.90;;
55300;SDS011;58302;51.446;-2.000;2022-07-30T08:35:03;4.30;;;3.58;;
55300;SDS011;58302;51.446;-2.000;2022-07-30T08:37:30;6.63;;;3.20;;
55300;SDS011;58302;51.446;-2.000;2022-07-30T08:39:56;5.38;;;3.22;;
55300;SDS011;58302;51.446;-2.000;2022-07-30T08:42:22;3.40;;;2.83;;
55300;SDS011;58302;51.446;-2.000;2022-07-30T08:44:49;5.70;;;3.13;;
55300;SDS011;58302;51.446;-2.000;2022-07-30T08:47:17;3.20;;;2.90;;
55300;SDS011;58302;51.446;-2.000;2022-07-30T08:49:48;4.25;;;3.53;;
55300;SDS011;58302;51.446;-2.000;2022-07-30T08:52:14;3.90;;;2.65;;
55300;SDS011;58302;51.446;-2.000;2022-07-30T08:54:40;7.13;;;2.65;;
55300;SDS011;58302;51.446;-2.000;2022-07-30T08:57:06;3.13;;;2.28;;
55300;SDS011;58302;51.446;-2.000;2022-07-30T08:59:33;2.95;;;2.53;;
55300;SDS011;58302;51.446;-2.000;2022-07-30T09:01:59;2.22;;;2.00;;
55300;SDS011;58302;51.446;-2.000;2022-07-30T09:04:25;2.22;;;1.95;;
55300;SDS011;58302;51.446;-2.000;2022-07-30T09:06:51;2.35;;;2.05;;
55300;SDS011;58302;51.446;-2.000;2022-07-30T09:09:17;4.05;;;2.17;;
55300;SDS011;58302;51.446;-2.000;2022-07-30T09:11:43;5.03;;;2.88;;
55300;SDS011;58302;51.446;-2.000;2022-07-30T09:14:13;2.63;;;2.15;;
55300;SDS011;58302;51.446;-2.000;2022-07-30T09:16:40;2.35;;;1.98;;
55300;SDS011;58302;51.446;-2.000;2022-07-30T09:21:37;3.92;;;1.98;;
55300;SDS011;58302;51.446;-2.000;2022-07-30T09:24:04;3.13;;;1.60;;
55300;SDS011;58302;51.446;-2.000;2022-07-30T09:29:18;2.40;;;1.92;;
55300;SDS011;58302;51.446;-2.000;2022-07-30T09:32:20;3.55;;;1.92;;
55300;SDS011;58302;51.446;-2.000;2022-07-30T09:34:38;2.88;;;2.42;;
55300;SDS011;58302;51.446;-2.000;2022-07-30T09:39:37;2.83;;;2.30;;
55300;SDS011;58302;51.446;-2.000;2022-07-30T09:42:18;2.08;;;1.88;;
55300;SDS011;58302;51.446;-2.000;2022-07-30T09:44:46;2.42;;;2.15;;
55300;SDS011;58302;51.446;-2.000;2022-07-30T09:50:05;2.25;;;1.67;;
55300;SDS011;58302;51.446;-2.000;2022-07-30T09:52:31;1.83;;;1.73;;
55300;SDS011;58302;51.446;-2.000;2022-07-30T09:54:57;3.72;;;1.90;;
55300;SDS011;58302;51.446;-2.000;2022-07-30T09:57:24;2.25;;;1.40;;
55300;SDS011;58302;51.446;-2.000;2022-07-30T09:59:51;2.25;;;1.90;;
55300;SDS011;58302;51.446;-2.000;2022-07-30T10:02:17;1.80;;;1.60;;
55300;SDS011;58302;51.446;-2.000;2022-07-30T10:04:43;2.08;;;1.63;;
55300;SDS011;58302;51.446;-2.000;2022-07-30T10:07:16;1.98;;;1.50;;
55300;SDS011;58302;51.446;-2.000;2022-07-30T10:09:44;1.85;;;1.75;;
55300;SDS011;58302;51.446;-2.000;2022-07-30T10:12:13;1.45;;;1.35;;
55300;SDS011;58302;51.446;-2.000;2022-07-30T10:14:44;1.83;;;1.55;;
55300;SDS011;58302;51.446;-2.000;2022-07-30T10:17:12;2.55;;;1.50;;
55300;SDS011;58302;51.446;-2.000;2022-07-30T10:19:38;1.30;;;1.20;;
55300;SDS011;58302;51.446;-2.000;2022-07-30T10:22:04;2.30;;;1.63;;
55300;SDS011;58302;51.446;-2.000;2022-07-30T10:24:30;1.42;;;1.15;;
55300;SDS011;58302;51.446;-2.000;2022-07-30T10:26:59;1.30;;;1.20;;
55300;SDS011;58302;51.446;-2.000;2022-07-30T10:29:26;1.20;;;1.10;;
55300;SDS011;58302;51.446;-2.000;2022-07-30T10:31:52;4.22;;;1.40;;
55300;SDS011;58302;51.446;-2.000;2022-07-30T10:34:18;1.00;;;1.00;;
55300;SDS011;58302;51.446;-2.000;2022-07-30T10:36:45;1.80;;;1.70;;
55300;SDS011;58302;51.446;-2.000;2022-07-30T10:39:17;1.10;;;1.00;;
55300;SDS011;58302;51.446;-2.000;2022-07-30T10:47:26;2.08;;;1.20;;
55300;SDS011;58302;51.446;-2.000;2022-07-30T10:50:07;0.70;;;0.70;;
55300;SDS011;58302;51.446;-2.000;2022-07-30T10:53:10;2.00;;;1.23;;
55300;SDS011;58302;51.446;-2.000;2022-07-30T10:55:33;5.95;;;1.20;;
55300;SDS011;58302;51.446;-2.000;2022-07-30T10:58:09;1.20;;;1.10;;
55300;SDS011;58302;51.446;-2.000;2022-07-30T11:03:20;2.25;;;1.23;;
55300;SDS011;58302;51.446;-2.000;2022-07-30T11:08:40;1.90;;;1.40;;
55300;SDS011;58302;51.446;-2.000;2022-07-30T11:16:13;1.48;;;1.17;;
55300;SDS011;58302;51.446;-2.000;2022-07-30T11:21:36;2.83;;;1.65;;
55300;SDS011;58302;51.446;-2.000;2022-07-30T11:24:02;1.35;;;1.13;;
55300;SDS011;58302;51.446;-2.000;2022-07-30T11:29:06;1.50;;;1.40;;
55300;SDS011;58302;51.446;-2.000;2022-07-30T11:31:52;1.20;;;1.10;;
55300;SDS011;58302;51.446;-2.000;2022-07-30T11:42:28;1.30;;;1.20;;
55300;SDS011;58302;51.446;-2.000;2022-07-30T11:47:47;1.10;;;0.82;;
55300;SDS011;58302;51.446;-2.000;2022-07-30T11:52:47;1.40;;;1.10;;
55300;SDS011;58302;51.446;-2.000;2022-07-30T11:57:49;1.70;;;1.20;;
55300;SDS011;58302;51.446;-2.000;2022-07-30T12:00:16;1.20;;;1.10;;
55300;SDS011;58302;51.446;-2.000;2022-07-30T12:02:45;1.25;;;0.98;;
55300;SDS011;58302;51.446;-2.000;2022-07-30T12:05:13;1.30;;;1.00;;
55300;SDS011;58302;51.446;-2.000;2022-07-30T12:07:39;1.30;;;1.20;;
55300;SDS011;58302;51.446;-2.000;2022-07-30T12:10:14;0.70;;;0.70;;
55300;SDS011;58302;51.446;-2.000;2022-07-30T12:12:43;1.15;;;1.05;;
55300;SDS011;58302;51.446;-2.000;2022-07-30T12:15:26;2.53;;;1.20;;
55300;SDS011;58302;51.446;-2.000;2022-07-30T12:17:54;1.30;;;1.20;;
55300;SDS011;58302;51.446;-2.000;2022-07-30T12:20:20;1.45;;;0.90;;
55300;SDS011;58302;51.446;-2.000;2022-07-30T12:22:46;1.02;;;0.80;;
55300;SDS011;58302;51.446;-2.000;2022-07-30T12:25:13;1.35;;;1.15;;
55300;SDS011;58302;51.446;-2.000;2022-07-30T12:27:39;0.95;;;0.95;;
55300;SDS011;58302;51.446;-2.000;2022-07-30T12:30:10;1.25;;;0.90;;
55300;SDS011;58302;51.446;-2.000;2022-07-30T12:32:36;0.82;;;0.82;;
55300;SDS011;58302;51.446;-2.000;2022-07-30T12:35:02;2.53;;;0.90;;
55300;SDS011;58302;51.446;-2.000;2022-07-30T12:37:29;1.13;;;0.85;;
55300;SDS011;58302;51.446;-2.000;2022-07-30T12:40:09;0.60;;;0.60;;
55300;SDS011;58302;51.446;-2.000;2022-07-30T12:42:48;0.73;;;0.73;;
55300;SDS011;58302;51.446;-2.000;2022-07-30T12:45:27;1.40;;;1.30;;
55300;SDS011;58302;51.446;-2.000;2022-07-30T12:47:57;0.70;;;0.70;;
55300;SDS011;58302;51.446;-2.000;2022-07-30T12:50:24;1.90;;;1.15;;
55300;SDS011;58302;51.446;-2.000;2022-07-30T12:52:52;1.58;;;1.25;;
55300;SDS011;58302;51.446;-2.000;2022-07-30T12:55:28;1.70;;;1.13;;
55300;SDS011;58302;51.446;-2.000;2022-07-30T13:00:27;0.77;;;0.77;;
55300;SDS011;58302;51.446;-2.000;2022-07-30T13:02:56;0.80;;;0.80;;
55300;SDS011;58302;51.446;-2.000;2022-07-30T13:08:17;0.80;;;0.80;;
55300;SDS011;58302;51.446;-2.000;2022-07-30T13:10:57;1.10;;;1.00;;
55300;SDS011;58302;51.446;-2.000;2022-07-30T13:13:27;1.15;;;0.95;;
55300;SDS011;58302;51.446;-2.000;2022-07-30T13:16:00;2.03;;;1.25;;
55300;SDS011;58302;51.446;-2.000;2022-07-30T13:18:28;1.17;;;0.80;;
55300;SDS011;58302;51.446;-2.000;2022-07-30T13:20:55;1.25;;;0.93;;
55300;SDS011;58302;51.446;-2.000;2022-07-30T13:23:23;0.85;;;0.85;;
55300;SDS011;58302;51.446;-2.000;2022-07-30T13:25:49;1.45;;;0.82;;
55300;SDS011;58302;51.446;-2.000;2022-07-30T13:28:15;2.13;;;0.82;;
55300;SDS011;58302;51.446;-2.000;2022-07-30T13:30:41;1.55;;;0.95;;
55300;SDS011;58302;51.446;-2.000;2022-07-30T13:33:08;1.15;;;0.98;;
55300;SDS011;58302;51.446;-2.000;2022-07-30T13:35:34;0.85;;;0.80;;
55300;SDS011;58302;51.446;-2.000;2022-07-30T13:38:00;0.98;;;0.98;;
55300;SDS011;58302;51.446;-2.000;2022-07-30T13:40:29;0.80;;;0.80;;
55300;SDS011;58302;51.446;-2.000;2022-07-30T13:42:59;0.73;;;0.73;;
55300;SDS011;58302;51.446;-2.000;2022-07-30T13:45:26;1.05;;;0.70;;
55300;SDS011;58302;51.446;-2.000;2022-07-30T13:47:54;1.13;;;0.65;;
55300;SDS011;58302;51.446;-2.000;2022-07-30T13:50:20;0.98;;;0.70;;
55300;SDS011;58302;51.446;-2.000;2022-07-30T13:52:46;0.70;;;0.70;;
55300;SDS011;58302;51.446;-2.000;2022-07-30T13:55:12;1.63;;;0.75;;
55300;SDS011;58302;51.446;-2.000;2022-07-30T13:57:38;0.80;;;0.80;;
55300;SDS011;58302;51.446;-2.000;2022-07-30T14:00:05;0.90;;;0.90;;
55300;SDS011;58302;51.446;-2.000;2022-07-30T14:02:32;1.08;;;0.90;;
55300;SDS011;58302;51.446;-2.000;2022-07-30T14:04:59;2.00;;;1.00;;
55300;SDS011;58302;51.446;-2.000;2022-07-30T14:07:32;0.85;;;0.75;;
55300;SDS011;58302;51.446;-2.000;2022-07-30T14:09:58;0.80;;;0.80;;
55300;SDS011;58302;51.446;-2.000;2022-07-30T14:12:24;2.25;;;1.00;;
55300;SDS011;58302;51.446;-2.000;2022-07-30T14:14:50;1.20;;;0.80;;
55300;SDS011;58302;51.446;-2.000;2022-07-30T14:17:16;1.63;;;0.70;;
55300;SDS011;58302;51.446;-2.000;2022-07-30T14:19:42;1.23;;;0.90;;
55300;SDS011;58302;51.446;-2.000;2022-07-30T14:22:08;2.67;;;1.50;;
55300;SDS011;58302;51.446;-2.000;2022-07-30T14:24:34;1.33;;;0.85;;
55300;SDS011;58302;51.446;-2.000;2022-07-30T14:27:01;1.00;;;0.90;;
55300;SDS011;58302;51.446;-2.000;2022-07-30T14:29:27;0.80;;;0.80;;
55300;SDS011;58302;51.446;-2.000;2022-07-30T14:31:54;1.42;;;1.10;;
55300;SDS011;58302;51.446;-2.000;2022-07-30T14:34:20;1.10;;;1.00;;
55300;SDS011;58302;51.446;-2.000;2022-07-30T14:36:47;1.55;;;1.10;;
55300;SDS011;58302;51.446;-2.000;2022-07-30T14:39:13;2.67;;;1.35;;
55300;SDS011;58302;51.446;-2.000;2022-07-30T14:41:39;2.33;;;1.73;;
55300;SDS011;58302;51.446;-2.000;2022-07-30T14:44:05;2.97;;;1.40;;
55300;SDS011;58302;51.446;-2.000;2022-07-30T14:46:37;1.35;;;1.25;;
55300;SDS011;58302;51.446;-2.000;2022-07-30T14:49:03;1.27;;;1.17;;
55300;SDS011;58302;51.446;-2.000;2022-07-30T14:51:29;1.83;;;1.67;;
55300;SDS011;58302;51.446;-2.000;2022-07-30T14:53:55;2.13;;;1.13;;
55300;SDS011;58302;51.446;-2.000;2022-07-30T14:56:21;2.28;;;1.77;;
55300;SDS011;58302;51.446;-2.000;2022-07-30T14:58:49;2.13;;;1.70;;
55300;SDS011;58302;51.446;-2.000;2022-07-30T15:01:15;1.58;;;1.40;;
55300;SDS011;58302;51.446;-2.000;2022-07-30T15:03:42;1.65;;;1.55;;
55300;SDS011;58302;51.446;-2.000;2022-07-30T15:06:11;2.97;;;1.50;;
55300;SDS011;58302;51.446;-2.000;2022-07-30T15:08:39;3.55;;;1.73;;
55300;SDS011;58302;51.446;-2.000;2022-07-30T15:11:06;1.80;;;1.70;;
55300;SDS011;58302;51.446;-2.000;2022-07-30T15:13:32;2.42;;;1.67;;
55300;SDS011;58302;51.446;-2.000;2022-07-30T15:15:58;2.63;;;2.13;;
55300;SDS011;58302;51.446;-2.000;2022-07-30T15:18:24;2.45;;;1.88;;
55300;SDS011;58302;51.446;-2.000;2022-07-30T15:20:50;2.28;;;1.70;;
55300;SDS011;58302;51.446;-2.000;2022-07-30T15:23:16;3.20;;;2.45;;
55300;SDS011;58302;51.446;-2.000;2022-07-30T15:25:42;2.35;;;1.75;;
55300;SDS011;58302;51.446;-2.000;2022-07-30T15:28:08;2.97;;;1.88;;
55300;SDS011;58302;51.446;-2.000;2022-07-30T15:30:34;2.70;;;1.80;;